Fort Polk, Louisiana
Current Conditions -  °F | °C
As of 9:58 PM on Friday 24 Oct 2014 (Local Time) from KPOE Reporting Station
Clear Clear  
Wind Chill: 56°   Ceiling: Unl
Heat Index: 56°   Visibility: 10mi
Dew Point: 53°   Wind: 1mph
Humidity: 89%   Direction: 140°SE
Pressure: 30.13"   Gusts: NA
Location:  30.9864°N, 93.2144°W
Report Text: KPOE 250258Z AUTO 14001KT 10SM CLR 13/12 A3013 RMK AO2 SLP204 T01320115 52011
Loading
Personal Weather Stations






























Interactive Weather Map
Tropical Storm Tracking
New forecast layout! Learn more

10-Day Weather Forecast

Advertisements
Track Severe Weather on mobile